Time;durP1;ratioP1;P1;durP2;ratioP2;P2;SDS_P1;SDS_P2;PMS_P1;PMS_P2;Temp;Humidity;BMP_temperature;BMP_pressure;BME280_temperature;BME280_humidity;BME280_pressure;Samples;Min_cycle;Max_cycle;Signal;HPM_P1;HPM_P2
2020/12/30 00:02:14;;;;;;;5.30;3.57;;;1.80;92.20;;;;;;4994974;28;20227;-85
2020/12/30 00:04:41;;;;;;;4.30;3.50;;;1.70;92.50;;;;;;4997932;28;20207;-86
2020/12/30 00:07:07;;;;;;;4.17;3.13;;;1.60;92.50;;;;;;5001644;28;20235;-83
2020/12/30 00:09:34;;;;;;;3.83;2.93;;;1.60;93.00;;;;;;4996826;28;20203;-84
2020/12/30 00:12:01;;;;;;;6.23;2.90;;;1.50;92.80;;;;;;4996827;28;20594;-83
2020/12/30 00:14:27;;;;;;;4.77;3.00;;;1.40;92.90;;;;;;5005334;28;20211;-85
2020/12/30 00:16:54;;;;;;;4.33;3.07;;;1.40;92.80;;;;;;4992642;28;20222;-83
2020/12/30 00:19:21;;;;;;;5.13;3.27;;;1.40;93.00;;;;;;4999135;28;20209;-83
2020/12/30 00:21:47;;;;;;;5.40;3.40;;;1.40;93.30;;;;;;4998330;28;20226;-82
2020/12/30 00:24:14;;;;;;;6.90;3.13;;;1.40;93.00;;;;;;4992981;28;20202;-85
2020/12/30 00:26:40;;;;;;;4.43;3.10;;;1.40;93.20;;;;;;4997968;28;20249;-84
2020/12/30 00:29:07;;;;;;;4.77;3.30;;;1.40;93.00;;;;;;4990677;28;20200;-85
2020/12/30 00:31:33;;;;;;;5.13;3.33;;;1.40;92.80;;;;;;4993002;28;20223;-83
2020/12/30 00:34:01;;;;;;;4.80;3.40;;;1.30;93.60;;;;;;4999053;28;20572;-86
2020/12/30 00:36:28;;;;;;;6.93;3.90;;;1.30;93.50;;;;;;5003393;28;20266;-82
2020/12/30 00:38:54;;;;;;;5.27;3.20;;;1.30;93.60;;;;;;5001373;28;20225;-85
2020/12/30 00:41:20;;;;;;;4.97;3.40;;;1.20;93.60;;;;;;4999098;28;20274;-85
2020/12/30 00:43:47;;;;;;;4.83;3.47;;;1.20;93.80;;;;;;4989488;28;20211;-84
2020/12/30 00:46:15;;;;;;;4.93;2.90;;;1.30;93.90;;;;;;5007194;28;20238;-84
2020/12/30 00:48:42;;;;;;;4.40;3.27;;;1.30;93.80;;;;;;4995414;28;20306;-85
2020/12/30 00:51:13;;;;;;;5.10;2.90;;;1.30;93.40;;;;;;4982166;28;20234;-84
2020/12/30 00:53:40;;;;;;;5.90;3.70;;;1.30;93.40;;;;;;4992714;28;20214;-86
2020/12/30 00:56:07;;;;;;;4.50;2.90;;;1.20;93.70;;;;;;5013776;28;20230;-85
2020/12/30 00:58:34;;;;;;;4.57;3.30;;;1.10;93.30;;;;;;5002956;28;20206;-85
2020/12/30 01:01:00;;;;;;;4.17;2.93;;;1.00;94.20;;;;;;5005058;28;20242;-84
2020/12/30 01:03:26;;;;;;;5.17;3.00;;;1.10;94.20;;;;;;5012635;28;20204;-85
2020/12/30 01:05:53;;;;;;;3.30;2.80;;;1.00;93.80;;;;;;4995622;28;20228;-85
2020/12/30 01:08:20;;;;;;;4.13;3.10;;;1.00;94.20;;;;;;4998538;28;20261;-84
2020/12/30 01:10:47;;;;;;;4.33;3.10;;;1.10;94.20;;;;;;5006814;28;20236;-84
2020/12/30 01:13:13;;;;;;;4.47;3.07;;;1.10;94.20;;;;;;4997592;28;20225;-84
2020/12/30 01:15:39;;;;;;;4.07;2.87;;;1.10;94.30;;;;;;5001571;28;20232;-84
2020/12/30 01:18:06;;;;;;;6.20;2.83;;;1.10;93.90;;;;;;4999899;28;20678;-84
2020/12/30 01:20:32;;;;;;;5.00;3.10;;;1.10;93.90;;;;;;5005083;28;20229;-85
2020/12/30 01:22:58;;;;;;;3.63;2.73;;;1.10;94.20;;;;;;5004052;28;20227;-85
2020/12/30 01:25:26;;;;;;;4.77;2.87;;;1.10;94.20;;;;;;4997074;28;20231;-86
2020/12/30 01:27:52;;;;;;;5.80;3.30;;;1.20;94.30;;;;;;4997982;28;20206;-86
2020/12/30 01:30:19;;;;;;;5.27;2.73;;;1.00;93.60;;;;;;4993131;28;20230;-84
2020/12/30 01:32:45;;;;;;;4.87;2.80;;;0.80;93.60;;;;;;5000419;28;20214;-87
2020/12/30 01:35:12;;;;;;;4.27;3.20;;;0.60;94.10;;;;;;4999053;28;20214;-85
2020/12/30 01:37:39;;;;;;;5.17;3.13;;;0.70;95.20;;;;;;4992186;28;20668;-85
2020/12/30 01:40:05;;;;;;;3.63;3.13;;;0.80;94.70;;;;;;5004682;28;20202;-86
2020/12/30 01:42:43;;;;;;;6.03;3.17;;;0.60;94.10;;;;;;4993661;28;20205;-85
2020/12/30 01:45:09;;;;;;;4.70;2.90;;;0.50;94.70;;;;;;5005492;28;20203;-86
2020/12/30 01:47:36;;;;;;;4.10;2.60;;;0.60;95.40;;;;;;4995626;28;20217;-87
2020/12/30 01:50:03;;;;;;;3.93;3.17;;;0.80;95.10;;;;;;4995073;28;20276;-85
2020/12/30 01:52:31;;;;;;;4.70;2.60;;;0.80;94.40;;;;;;4996533;28;20219;-85
2020/12/30 01:54:57;;;;;;;4.07;2.47;;;0.80;94.20;;;;;;4993730;28;20207;-86
2020/12/30 01:57:24;;;;;;;3.97;2.60;;;0.80;94.20;;;;;;5001316;28;20562;-85
2020/12/30 01:59:51;;;;;;;4.03;2.80;;;0.80;94.20;;;;;;5003694;28;20235;-85
2020/12/30 02:02:22;;;;;;;4.37;2.50;;;0.90;94.20;;;;;;5007555;28;20216;-86
2020/12/30 02:04:51;;;;;;;3.77;2.47;;;0.90;94.20;;;;;;5004711;28;20236;-85
2020/12/30 02:07:19;;;;;;;4.37;2.37;;;0.90;94.20;;;;;;4989132;28;20233;-85
2020/12/30 02:09:46;;;;;;;3.57;2.57;;;0.90;94.20;;;;;;4999438;28;20205;-84
2020/12/30 02:12:14;;;;;;;2.80;2.43;;;0.90;94.20;;;;;;4991301;28;20232;-85
2020/12/30 02:14:40;;;;;;;4.27;2.60;;;0.90;94.20;;;;;;4994872;28;20204;-85
2020/12/30 02:17:12;;;;;;;3.80;2.50;;;0.90;94.20;;;;;;4993556;28;20229;-84
2020/12/30 02:19:38;;;;;;;3.63;2.40;;;0.90;94.20;;;;;;4991794;28;20201;-85
2020/12/30 02:22:06;;;;;;;3.67;2.20;;;0.90;94.20;;;;;;4996577;28;20226;-85
2020/12/30 02:24:34;;;;;;;3.20;2.30;;;0.90;94.20;;;;;;5003045;28;20199;-84
2020/12/30 02:27:02;;;;;;;3.53;2.07;;;0.90;94.20;;;;;;4997962;28;20247;-84
2020/12/30 02:29:29;;;;;;;4.67;2.17;;;0.90;94.20;;;;;;4996058;28;20212;-84
2020/12/30 02:31:57;;;;;;;3.10;2.30;;;1.00;94.20;;;;;;4989408;28;20737;-84
2020/12/30 02:34:24;;;;;;;3.37;1.97;;;0.90;93.60;;;;;;4998662;28;20398;-85
2020/12/30 02:36:51;;;;;;;3.47;2.20;;;0.80;93.60;;;;;;5000616;28;20319;-84
2020/12/30 02:39:18;;;;;;;3.70;2.13;;;0.80;94.20;;;;;;4998761;28;20201;-84
2020/12/30 02:41:46;;;;;;;3.80;2.10;;;0.80;94.50;;;;;;5005774;28;20729;-85
2020/12/30 02:44:12;;;;;;;3.47;2.00;;;1.00;94.20;;;;;;5006648;28;20634;-84
2020/12/30 02:46:38;;;;;;;2.53;2.30;;;1.00;94.20;;;;;;5002241;28;20223;-85
2020/12/30 02:49:05;;;;;;;4.23;2.57;;;1.10;94.20;;;;;;5001558;28;20656;-82
2020/12/30 02:51:31;;;;;;;3.40;2.60;;;1.10;94.00;;;;;;4994732;28;20235;-84
2020/12/30 02:53:58;;;;;;;2.60;2.00;;;1.20;93.80;;;;;;4993648;28;20654;-85
2020/12/30 02:56:25;;;;;;;4.57;1.87;;;1.30;93.70;;;;;;4984370;28;20245;-85
2020/12/30 02:58:52;;;;;;;3.27;2.13;;;1.20;93.20;;;;;;4998353;28;20540;-85
2020/12/30 03:01:18;;;;;;;2.73;2.00;;;1.20;93.80;;;;;;4991677;28;20243;-85
2020/12/30 03:03:45;;;;;;;2.77;2.30;;;1.20;93.20;;;;;;4993711;28;20592;-85
2020/12/30 03:06:11;;;;;;;2.83;2.10;;;1.20;93.20;;;;;;4998264;28;20704;-86
2020/12/30 03:08:38;;;;;;;4.83;2.50;;;1.30;93.40;;;;;;5003994;28;20206;-86
2020/12/30 03:11:05;;;;;;;3.03;2.10;;;1.40;93.30;;;;;;4978859;28;20317;-84
2020/12/30 03:13:32;;;;;;;3.20;2.10;;;1.50;92.90;;;;;;4992076;28;20199;-86
2020/12/30 03:16:00;;;;;;;2.80;1.97;;;1.70;92.50;;;;;;4994699;28;20597;-85
2020/12/30 03:18:26;;;;;;;2.60;1.73;;;1.60;91.80;;;;;;4996387;28;20203;-84
2020/12/30 03:20:53;;;;;;;2.63;2.43;;;1.60;92.10;;;;;;4987025;28;20229;-85
2020/12/30 03:23:19;;;;;;;2.97;2.10;;;1.60;92.00;;;;;;4991210;28;20206;-85
2020/12/30 03:25:46;;;;;;;2.67;1.90;;;1.60;92.00;;;;;;4994799;28;20242;-85
2020/12/30 03:28:13;;;;;;;2.70;2.10;;;1.50;92.00;;;;;;4997887;28;20842;-84
2020/12/30 03:30:39;;;;;;;2.43;2.20;;;1.50;92.20;;;;;;4998640;28;20233;-86
2020/12/30 03:33:06;;;;;;;3.67;2.27;;;1.60;92.60;;;;;;5008499;28;20545;-85
2020/12/30 03:35:33;;;;;;;4.03;2.10;;;1.70;92.10;;;;;;4995729;28;20575;-85
2020/12/30 03:37:59;;;;;;;2.30;1.93;;;1.70;92.10;;;;;;5001624;28;20202;-86
2020/12/30 03:40:26;;;;;;;3.30;1.70;;;1.60;91.70;;;;;;5000226;28;20262;-84
2020/12/30 03:42:52;;;;;;;3.40;1.97;;;1.40;91.80;;;;;;5010923;28;20234;-85
2020/12/30 03:45:19;;;;;;;2.93;2.13;;;1.30;92.30;;;;;;5003391;28;20239;-85
2020/12/30 03:47:45;;;;;;;4.17;2.17;;;1.20;92.70;;;;;;5002766;28;20587;-85
2020/12/30 03:50:12;;;;;;;3.23;2.30;;;1.10;93.00;;;;;;4997881;28;20226;-85
2020/12/30 03:52:39;;;;;;;2.70;1.90;;;1.30;93.60;;;;;;4994995;28;20234;-85
2020/12/30 03:55:05;;;;;;;2.77;1.90;;;1.40;93.20;;;;;;4993997;28;20209;-86
2020/12/30 03:57:31;;;;;;;2.70;1.90;;;1.60;92.90;;;;;;4997818;28;20208;-85
2020/12/30 03:59:58;;;;;;;2.43;2.03;;;1.80;92.50;;;;;;5007236;28;20595;-85
2020/12/30 04:02:24;;;;;;;3.27;2.30;;;1.80;92.30;;;;;;5012852;28;20229;-85
2020/12/30 04:04:51;;;;;;;2.93;2.30;;;1.90;92.20;;;;;;5001517;28;20215;-85
2020/12/30 04:07:18;;;;;;;3.63;2.13;;;1.80;91.90;;;;;;5004206;28;20231;-85
2020/12/30 04:09:44;;;;;;;4.13;2.50;;;1.70;92.00;;;;;;5001697;28;20210;-85
2020/12/30 04:12:11;;;;;;;2.60;1.87;;;1.60;92.50;;;;;;4998835;28;20230;-85
2020/12/30 04:14:37;;;;;;;2.97;2.00;;;1.60;92.60;;;;;;4999404;28;20209;-85
2020/12/30 04:17:03;;;;;;;3.37;2.23;;;1.60;92.50;;;;;;5005633;28;20226;-85
2020/12/30 04:19:30;;;;;;;2.80;2.10;;;1.40;92.60;;;;;;4995059;28;20199;-84
2020/12/30 04:21:56;;;;;;;2.40;1.73;;;1.40;93.20;;;;;;4994703;28;20285;-85
2020/12/30 04:24:24;;;;;;;4.10;2.23;;;1.60;93.10;;;;;;4995646;28;20218;-85
2020/12/30 04:26:50;;;;;;;5.20;2.20;;;1.80;92.80;;;;;;5000574;28;20224;-85
2020/12/30 04:29:16;;;;;;;2.00;1.73;;;1.80;92.10;;;;;;4996938;28;20200;-85
2020/12/30 04:31:43;;;;;;;2.90;2.00;;;1.70;91.90;;;;;;4990240;28;20850;-86
2020/12/30 04:34:09;;;;;;;2.57;1.90;;;1.60;92.10;;;;;;4996548;28;20568;-85
2020/12/30 04:36:36;;;;;;;2.20;1.70;;;1.40;92.40;;;;;;5000364;28;20234;-85
2020/12/30 04:39:03;;;;;;;2.00;1.80;;;1.40;92.60;;;;;;4987033;28;20428;-85
2020/12/30 04:41:33;;;;;;;3.50;1.97;;;1.50;92.90;;;;;;4999681;28;20235;-86
2020/12/30 04:44:01;;;;;;;2.50;1.87;;;1.60;92.60;;;;;;5002477;28;20222;-85
2020/12/30 04:46:28;;;;;;;2.40;1.83;;;1.60;92.70;;;;;;4999554;28;20651;-84
2020/12/30 04:48:57;;;;;;;2.60;1.80;;;1.70;92.50;;;;;;4990839;28;20204;-85
2020/12/30 04:51:24;;;;;;;2.63;1.87;;;1.60;92.40;;;;;;4998756;28;20231;-84
2020/12/30 04:53:53;;;;;;;3.03;1.90;;;1.50;92.60;;;;;;5001528;28;20203;-86
2020/12/30 04:56:41;;;;;;;3.70;2.00;;;1.50;92.90;;;;;;4996729;28;20232;-84
2020/12/30 04:59:10;;;;;;;2.03;1.70;;;1.60;93.50;;;;;;4996500;28;20696;-85
2020/12/30 05:01:45;;;;;;;2.83;1.90;;;1.70;92.70;;;;;;4994345;28;20288;-85
2020/12/30 05:04:12;;;;;;;2.40;1.77;;;1.80;92.50;;;;;;4991004;28;20215;-84
2020/12/30 05:06:40;;;;;;;2.50;1.80;;;2.00;92.40;;;;;;5004704;28;20322;-85
2020/12/30 05:09:07;;;;;;;3.17;1.93;;;2.00;92.00;;;;;;4995045;28;20205;-85
2020/12/30 05:11:33;;;;;;;3.30;1.90;;;2.10;92.10;;;;;;5001452;28;20575;-85
2020/12/30 05:14:00;;;;;;;2.17;1.67;;;2.10;92.10;;;;;;4993876;28;20199;-85
2020/12/30 05:16:28;;;;;;;2.53;1.80;;;2.10;91.40;;;;;;5003343;28;20227;-86
2020/12/30 05:19:04;;;;;;;2.43;2.00;;;2.00;91.50;;;;;;4997256;28;20196;-85
2020/12/30 05:21:30;;;;;;;3.13;1.97;;;1.90;91.80;;;;;;4997221;28;20238;-85
2020/12/30 05:23:57;;;;;;;2.23;1.73;;;1.70;92.20;;;;;;5000555;28;20202;-85
2020/12/30 05:26:24;;;;;;;2.80;1.87;;;1.60;92.70;;;;;;5004538;28;20258;-85
2020/12/30 05:28:52;;;;;;;3.23;1.83;;;1.50;92.90;;;;;;4999783;28;20254;-85
2020/12/30 05:31:19;;;;;;;2.67;1.77;;;1.50;93.00;;;;;;4998375;28;20682;-85
2020/12/30 05:33:46;;;;;;;2.50;2.03;;;1.50;93.20;;;;;;4999357;28;20262;-85
2020/12/30 05:36:14;;;;;;;2.27;1.90;;;1.60;93.30;;;;;;4992051;28;20241;-85
2020/12/30 05:38:41;;;;;;;3.20;1.87;;;1.90;93.00;;;;;;4999963;28;20198;-85
2020/12/30 05:41:17;;;;;;;4.47;2.30;;;2.10;92.50;;;;;;4994713;28;20230;-86
2020/12/30 05:43:44;;;;;;;2.47;1.90;;;2.20;92.20;;;;;;4996050;28;20203;-85
2020/12/30 05:46:10;;;;;;;3.27;2.23;;;2.30;91.70;;;;;;4993421;28;20229;-85
2020/12/30 05:48:37;;;;;;;4.27;2.50;;;2.30;91.70;;;;;;4992147;28;20583;-85
2020/12/30 05:51:04;;;;;;;2.63;2.27;;;2.30;91.40;;;;;;4985455;28;20239;-85
2020/12/30 05:53:30;;;;;;;2.93;2.30;;;2.30;91.40;;;;;;4995548;28;20271;-85
2020/12/30 05:56:09;;;;;;;4.97;2.50;;;2.30;90.70;;;;;;4994500;28;20330;-84
2020/12/30 05:58:37;;;;;;;3.07;2.00;;;2.20;90.80;;;;;;4992167;28;20199;-85
2020/12/30 06:01:24;;;;;;;3.37;2.30;;;2.20;91.00;;;;;;4991443;28;20722;-86
2020/12/30 06:03:50;;;;;;;2.63;2.20;;;2.10;91.20;;;;;;4996923;28;20221;-85
2020/12/30 06:06:21;;;;;;;3.37;2.50;;;2.10;91.10;;;;;;4991476;28;20223;-85
2020/12/30 06:08:49;;;;;;;2.80;2.40;;;2.20;91.40;;;;;;5000499;28;20198;-85
2020/12/30 06:11:24;;;;;;;3.50;2.40;;;2.10;91.30;;;;;;4989326;28;20227;-85
2020/12/30 06:13:52;;;;;;;3.17;2.20;;;2.10;91.50;;;;;;5001192;28;20208;-85
2020/12/30 06:16:23;;;;;;;4.63;2.30;;;2.10;91.30;;;;;;4993725;28;20227;-85
2020/12/30 06:18:51;;;;;;;3.23;2.37;;;2.00;91.30;;;;;;4997634;28;20207;-85
2020/12/30 06:21:20;;;;;;;3.17;2.07;;;2.00;91.00;;;;;;5001750;28;20219;-85
2020/12/30 06:23:51;;;;;;;3.70;2.43;;;2.00;91.10;;;;;;4985123;28;20211;-84
2020/12/30 06:26:21;;;;;;;2.93;1.90;;;2.00;91.40;;;;;;4996309;28;20273;-85
2020/12/30 06:28:49;;;;;;;4.43;2.33;;;2.00;91.30;;;;;;4993818;28;20648;-84
2020/12/30 06:31:16;;;;;;;3.43;2.10;;;2.00;91.80;;;;;;4990834;28;20642;-85
2020/12/30 06:33:42;;;;;;;3.13;2.33;;;2.00;91.50;;;;;;4993543;28;20254;-86
2020/12/30 06:36:09;;;;;;;3.07;2.20;;;2.00;91.90;;;;;;4992735;28;20231;-84
2020/12/30 06:38:41;;;;;;;4.67;1.87;;;2.20;92.00;;;;;;5004696;28;20209;-85
2020/12/30 06:41:08;;;;;;;3.70;2.23;;;2.30;91.20;;;;;;4994255;28;20219;-86
2020/12/30 06:43:39;;;;;;;3.27;2.37;;;2.40;91.60;;;;;;4992594;28;20203;-86
2020/12/30 06:46:06;;;;;;;9.10;2.80;;;2.50;91.30;;;;;;5010714;28;20278;-85
2020/12/30 06:48:53;;;;;;;3.57;2.30;;;2.60;91.30;;;;;;5000248;28;20192;-85
2020/12/30 06:51:19;;;;;;;2.50;2.10;;;2.40;91.00;;;;;;4981890;28;20230;-86
2020/12/30 06:53:52;;;;;;;2.70;2.23;;;2.50;91.40;;;;;;4996707;28;20191;-85
2020/12/30 06:56:38;;;;;;;2.80;2.03;;;2.50;91.20;;;;;;4991789;28;20228;-85
2020/12/30 06:59:06;;;;;;;5.40;2.30;;;2.60;91.20;;;;;;5002825;28;20242;-85
2020/12/30 07:01:53;;;;;;;3.83;2.20;;;2.60;90.80;;;;;;5006959;28;20333;-85
2020/12/30 07:04:19;;;;;;;2.63;2.10;;;2.60;91.00;;;;;;4997863;28;20686;-84
2020/12/30 07:06:45;;;;;;;3.13;2.27;;;2.60;91.20;;;;;;5004147;28;20235;-85
2020/12/30 07:09:14;;;;;;;2.40;2.07;;;2.70;91.20;;;;;;4995740;28;20608;-85
2020/12/30 07:11:51;;;;;;;2.40;2.20;;;2.60;90.70;;;;;;4994262;28;20234;-84
2020/12/30 07:14:20;;;;;;;3.13;2.30;;;2.60;91.10;;;;;;5000901;28;20199;-84
2020/12/30 07:16:51;;;;;;;3.47;2.60;;;2.50;90.70;;;;;;5001919;28;20709;-84
2020/12/30 07:19:19;;;;;;;4.00;2.67;;;2.50;91.00;;;;;;4998520;28;20204;-84
2020/12/30 07:21:51;;;;;;;3.63;2.50;;;2.50;91.10;;;;;;5003169;28;20588;-85
2020/12/30 07:24:22;;;;;;;3.30;2.43;;;2.40;90.50;;;;;;4996881;28;20655;-84
2020/12/30 07:26:51;;;;;;;3.03;2.50;;;2.40;90.60;;;;;;4999093;28;20224;-84
2020/12/30 07:29:18;;;;;;;3.43;2.40;;;2.40;90.60;;;;;;4989404;28;20515;-84
2020/12/30 07:31:48;;;;;;;3.27;2.30;;;2.40;90.40;;;;;;4994476;28;20698;-85
2020/12/30 07:34:19;;;;;;;3.90;2.50;;;2.30;90.20;;;;;;4997712;28;20203;-84
2020/12/30 07:36:47;;;;;;;5.13;2.27;;;2.30;90.40;;;;;;4987707;28;20228;-84
2020/12/30 07:39:14;;;;;;;3.73;2.37;;;2.40;90.60;;;;;;4995232;28;20227;-84
2020/12/30 07:41:45;;;;;;;3.23;2.20;;;2.40;90.30;;;;;;4992318;28;20219;-84
2020/12/30 07:44:12;;;;;;;2.80;2.23;;;2.40;90.50;;;;;;4994795;28;20671;-85
2020/12/30 07:46:39;;;;;;;4.83;2.40;;;2.30;90.30;;;;;;4987235;28;20227;-84
2020/12/30 07:49:14;;;;;;;4.70;2.67;;;2.40;90.80;;;;;;4997785;28;20212;-84
2020/12/30 07:51:50;;;;;;;4.00;2.60;;;2.30;90.60;;;;;;4985895;28;20675;-84
2020/12/30 07:54:18;;;;;;;3.27;2.57;;;2.20;90.20;;;;;;5003830;28;20659;-84
2020/12/30 07:56:45;;;;;;;5.13;2.50;;;2.20;90.30;;;;;;4993025;28;20232;-84
2020/12/30 07:59:19;;;;;;;3.87;2.40;;;2.20;90.30;;;;;;4992906;28;20228;-84
2020/12/30 08:02:00;;;;;;;4.40;2.87;;;2.40;90.20;;;;;;5003731;28;20223;-85
2020/12/30 08:04:27;;;;;;;3.10;2.37;;;2.60;90.20;;;;;;4998083;28;20261;-84
2020/12/30 08:06:54;;;;;;;2.60;2.40;;;2.70;88.40;;;;;;4995879;28;20232;-84
2020/12/30 08:09:25;;;;;;;5.27;2.57;;;2.80;87.60;;;;;;4998733;28;20196;-84
2020/12/30 08:11:55;;;;;;;3.97;2.30;;;2.70;87.50;;;;;;4994599;28;20234;-84
2020/12/30 08:14:22;;;;;;;3.93;2.40;;;2.70;87.50;;;;;;4997679;28;20250;-84
2020/12/30 08:16:53;;;;;;;4.27;2.50;;;2.60;87.50;;;;;;5004791;28;20641;-84
2020/12/30 08:19:34;;;;;;;5.23;2.73;;;2.50;87.40;;;;;;4995889;28;20224;-84
2020/12/30 08:22:05;;;;;;;3.47;3.03;;;2.50;87.40;;;;;;5011940;28;20776;-84
2020/12/30 08:24:32;;;;;;;3.40;2.30;;;2.50;87.40;;;;;;4999792;28;20578;-84
2020/12/30 08:27:00;;;;;;;2.50;2.20;;;2.50;87.40;;;;;;5004244;28;20230;-84
2020/12/30 08:29:30;;;;;;;3.03;2.40;;;2.70;87.50;;;;;;4995725;28;20226;-85
2020/12/30 08:31:59;;;;;;;3.00;2.30;;;2.90;87.70;;;;;;5000547;28;20234;-84
2020/12/30 08:34:31;;;;;;;4.37;2.37;;;3.10;86.30;;;;;;4994228;28;20636;-84
2020/12/30 08:37:04;;;;;;;4.13;2.47;;;3.40;85.80;;;;;;4996851;28;20678;-83
2020/12/30 08:39:31;;;;;;;3.23;1.90;;;3.50;84.80;;;;;;5003125;28;20247;-84
2020/12/30 08:42:03;;;;;;;3.83;2.33;;;3.40;83.60;;;;;;5009525;28;20231;-84
2020/12/30 08:44:40;;;;;;;3.10;2.10;;;3.60;85.70;;;;;;5001251;28;20545;-84
2020/12/30 08:47:07;;;;;;;2.67;2.30;;;3.70;84.00;;;;;;5006285;28;20611;-84
2020/12/30 08:49:35;;;;;;;3.00;2.00;;;3.80;83.50;;;;;;5001935;28;20263;-87
2020/12/30 08:52:17;;;;;;;2.57;2.10;;;3.90;83.20;;;;;;5005365;28;20237;-86
2020/12/30 08:54:43;;;;;;;3.00;2.20;;;4.10;82.00;;;;;;5008160;28;20679;-86
2020/12/30 08:57:11;;;;;;;2.87;2.27;;;4.20;81.80;;;;;;5012227;28;20230;-86
2020/12/30 08:59:37;;;;;;;3.90;2.30;;;4.20;79.30;;;;;;4993111;28;20269;-88
2020/12/30 09:02:13;;;;;;;2.37;1.73;;;4.00;78.90;;;;;;5015822;28;20219;-87
2020/12/30 09:04:52;;;;;;;3.67;2.10;;;3.80;80.30;;;;;;4988825;28;20237;-87
2020/12/30 09:07:26;;;;;;;2.63;2.00;;;3.80;81.40;;;;;;4997782;28;20227;-86
2020/12/30 09:10:04;;;;;;;3.43;2.00;;;3.80;83.40;;;;;;4993066;28;20211;-86
2020/12/30 09:12:32;;;;;;;3.47;2.20;;;4.00;83.10;;;;;;4993552;28;20675;-85
2020/12/30 09:14:58;;;;;;;2.47;1.80;;;4.00;81.40;;;;;;5004103;28;20217;-86
2020/12/30 09:17:24;;;;;;;2.77;1.97;;;4.00;81.40;;;;;;4995840;28;20298;-86
2020/12/30 09:19:52;;;;;;;2.43;1.97;;;4.00;81.20;;;;;;4996923;28;20248;-85
2020/12/30 09:22:18;;;;;;;3.63;2.20;;;4.10;81.60;;;;;;4994200;28;20240;-86
2020/12/30 09:24:45;;;;;;;3.53;2.10;;;4.30;81.10;;;;;;5005427;28;20563;-86
2020/12/30 09:27:20;;;;;;;2.70;2.00;;;4.40;79.80;;;;;;4982369;28;20221;-87
2020/12/30 09:30:11;;;;;;;2.20;2.00;;;4.60;77.20;;;;;;5003537;28;20650;-86
2020/12/30 09:32:37;;;;;;;2.80;2.03;;;4.60;76.20;;;;;;4988009;28;20239;-86
2020/12/30 09:35:05;;;;;;;3.40;2.20;;;4.90;77.10;;;;;;4989562;28;20195;-86
2020/12/30 09:37:32;;;;;;;3.27;1.70;;;5.10;75.90;;;;;;4994989;28;20210;-86
2020/12/30 09:40:07;;;;;;;2.57;1.80;;;5.10;72.60;;;;;;4997438;28;20207;-89
2020/12/30 09:42:34;;;;;;;2.30;1.90;;;5.10;75.10;;;;;;4996332;28;20306;-90
2020/12/30 09:45:03;;;;;;;3.03;2.07;;;5.00;75.50;;;;;;4990490;28;20527;-89
2020/12/30 09:47:29;;;;;;;3.40;1.80;;;5.00;72.60;;;;;;5001383;28;20222;-89
2020/12/30 09:49:56;;;;;;;2.63;1.77;;;5.00;71.60;;;;;;4997656;28;20218;-89
2020/12/30 09:52:22;;;;;;;3.33;2.03;;;5.20;72.40;;;;;;4997440;28;20223;-89
2020/12/30 09:54:49;;;;;;;3.87;1.80;;;5.40;70.10;;;;;;4992301;28;20261;-89
2020/12/30 09:57:15;;;;;;;4.27;1.77;;;5.40;70.20;;;;;;4990559;28;20319;-88
2020/12/30 09:59:43;;;;;;;4.00;2.10;;;5.60;70.40;;;;;;4992917;28;20243;-89
2020/12/30 10:02:10;;;;;;;2.87;1.87;;;5.80;70.60;;;;;;4991177;28;20314;-89
2020/12/30 10:04:41;;;;;;;2.70;1.63;;;5.90;70.40;;;;;;4990645;28;20299;-89
2020/12/30 10:07:08;;;;;;;4.07;2.10;;;5.90;72.10;;;;;;4983535;28;20231;-89
2020/12/30 10:09:36;;;;;;;2.07;1.87;;;5.90;69.20;;;;;;5008354;28;20312;-90
2020/12/30 10:12:03;;;;;;;2.40;1.70;;;5.90;70.70;;;;;;5002584;28;20260;-89
2020/12/30 10:14:29;;;;;;;3.17;2.10;;;5.90;65.80;;;;;;4996993;28;20191;-88
2020/12/30 10:16:56;;;;;;;2.97;2.13;;;5.70;70.30;;;;;;5002432;28;20287;-88
2020/12/30 10:19:23;;;;;;;3.10;2.10;;;5.60;70.40;;;;;;4998408;28;20695;-88
2020/12/30 10:21:50;;;;;;;4.40;2.30;;;5.40;70.70;;;;;;4994708;28;20236;-88
2020/12/30 10:24:16;;;;;;;2.77;1.83;;;5.40;70.10;;;;;;4995595;28;20286;-89
2020/12/30 10:26:43;;;;;;;2.63;2.30;;;5.60;65.80;;;;;;4998499;28;20706;-88
2020/12/30 10:29:09;;;;;;;5.13;2.20;;;5.80;66.60;;;;;;4996231;28;20235;-88
2020/12/30 10:31:36;;;;;;;3.93;2.00;;;6.00;66.30;;;;;;5005714;28;20219;-88
2020/12/30 10:34:02;;;;;;;6.03;2.20;;;6.10;62.30;;;;;;5006620;28;20199;-88
2020/12/30 10:36:31;;;;;;;2.27;1.90;;;6.10;70.90;;;;;;5007331;28;20278;-88
2020/12/30 10:38:59;;;;;;;3.03;2.23;;;6.10;66.70;;;;;;5000037;28;20730;-88
2020/12/30 10:41:26;;;;;;;2.83;2.07;;;6.40;68.40;;;;;;4999025;28;20302;-88
2020/12/30 10:43:53;;;;;;;5.00;2.27;;;6.60;59.90;;;;;;5002707;28;20677;-88
2020/12/30 10:46:20;;;;;;;2.45;2.15;;;6.80;60.10;;;;;;4996342;28;20223;-88
2020/12/30 10:48:47;;;;;;;4.47;2.55;;;6.70;59.80;;;;;;5005092;28;20231;-87
2020/12/30 10:51:15;;;;;;;3.25;2.17;;;6.80;68.00;;;;;;5000296;28;20279;-88
2020/12/30 10:53:43;;;;;;;3.97;2.47;;;7.00;62.60;;;;;;4994857;28;20285;-87
2020/12/30 10:56:10;;;;;;;3.75;1.95;;;7.10;61.90;;;;;;4995794;28;20280;-87
2020/12/30 10:58:37;;;;;;;3.15;2.00;;;7.00;59.90;;;;;;4994564;28;20210;-87
2020/12/30 11:01:07;;;;;;;3.23;1.87;;;7.00;57.10;;;;;;5005552;28;20590;-87
2020/12/30 11:03:34;;;;;;;4.00;2.20;;;6.80;61.00;;;;;;4998994;28;20496;-87
2020/12/30 11:06:02;;;;;;;6.70;2.20;;;6.80;59.20;;;;;;4997912;28;20242;-88
2020/12/30 11:08:29;;;;;;;4.20;1.90;;;6.60;60.10;;;;;;5005592;28;20561;-88
2020/12/30 11:10:58;;;;;;;3.30;2.30;;;6.40;60.20;;;;;;5003439;28;20236;-88
2020/12/30 11:13:25;;;;;;;4.17;2.00;;;6.50;64.40;;;;;;5000852;28;20227;-87
2020/12/30 11:15:52;;;;;;;4.53;2.17;;;6.60;63.70;;;;;;4998047;28;20256;-88
2020/12/30 11:18:19;;;;;;;3.53;1.90;;;6.70;64.00;;;;;;5000655;28;20235;-88
2020/12/30 11:20:45;;;;;;;3.37;2.17;;;6.80;66.00;;;;;;5002205;28;20307;-88
2020/12/30 11:23:12;;;;;;;4.67;2.20;;;6.90;62.60;;;;;;5008087;28;20275;-87
2020/12/30 11:25:41;;;;;;;4.67;1.97;;;6.90;62.10;;;;;;5013224;28;20239;-87
2020/12/30 11:28:09;;;;;;;3.70;2.57;;;6.80;60.90;;;;;;5003559;28;20231;-87
2020/12/30 11:30:36;;;;;;;5.57;2.60;;;6.70;63.70;;;;;;5005383;28;20705;-88
2020/12/30 11:33:03;;;;;;;5.37;2.30;;;6.70;64.00;;;;;;4997175;28;20318;-87
2020/12/30 11:35:30;;;;;;;4.77;2.47;;;6.80;68.20;;;;;;4999084;28;20291;-89
2020/12/30 11:37:58;;;;;;;6.10;2.70;;;7.00;62.90;;;;;;4984535;28;20239;-88
2020/12/30 11:40:26;;;;;;;8.03;2.10;;;7.20;63.30;;;;;;4992539;28;20315;-87
2020/12/30 11:42:52;;;;;;;5.03;2.20;;;7.20;61.50;;;;;;5017547;28;20195;-87
2020/12/30 11:45:20;;;;;;;5.60;2.40;;;7.00;62.40;;;;;;5004926;28;20390;-88
2020/12/30 11:47:46;;;;;;;7.95;2.40;;;7.00;62.20;;;;;;5006642;28;20191;-87
2020/12/30 11:50:15;;;;;;;5.72;2.38;;;6.70;62.50;;;;;;5010120;28;20286;-89
2020/12/30 11:52:42;;;;;;;6.37;2.33;;;6.70;62.50;;;;;;4998153;28;20226;-91
2020/12/30 11:55:09;;;;;;;3.93;2.33;;;6.60;63.00;;;;;;4997063;28;20286;-90
2020/12/30 11:57:35;;;;;;;3.23;1.73;;;6.90;62.10;;;;;;5000484;28;20239;-89
2020/12/30 12:00:05;;;;;;;4.93;1.87;;;6.80;60.20;;;;;;5005603;28;20259;-90
2020/12/30 12:02:34;;;;;;;4.47;2.47;;;6.60;63.30;;;;;;4997990;28;20196;-87
2020/12/30 12:05:04;;;;;;;5.03;2.40;;;6.60;62.30;;;;;;5002790;28;20742;-88
2020/12/30 12:07:31;;;;;;;6.78;2.00;;;6.50;61.60;;;;;;4998290;28;20235;-87
2020/12/30 12:09:58;;;;;;;11.00;2.67;;;6.50;66.40;;;;;;5000800;28;20662;-88
2020/12/30 12:12:24;;;;;;;7.27;2.40;;;6.70;63.70;;;;;;5016887;28;20255;-87
2020/12/30 12:14:50;;;;;;;6.27;2.70;;;6.80;66.60;;;;;;5007084;28;20203;-87
2020/12/30 12:17:17;;;;;;;8.37;2.07;;;6.70;63.00;;;;;;4999457;28;20258;-88
2020/12/30 12:19:48;;;;;;;5.80;2.10;;;6.80;63.40;;;;;;4999622;28;20206;-88
2020/12/30 12:22:14;;;;;;;4.03;2.23;;;6.40;62.20;;;;;;5004215;28;20291;-87
2020/12/30 12:24:41;;;;;;;4.13;2.10;;;6.50;66.40;;;;;;5004403;28;20234;-87
2020/12/30 12:27:08;;;;;;;4.20;1.87;;;6.60;61.80;;;;;;5015008;28;20641;-88
2020/12/30 12:29:49;;;;;;;14.90;2.10;;;6.50;61.70;;;;;;5000847;28;20231;-87
2020/12/30 12:32:18;;;;;;;4.40;1.87;;;6.30;61.60;;;;;;4999746;28;20309;-88
2020/12/30 12:34:47;;;;;;;4.37;1.63;;;6.40;65.20;;;;;;4989949;28;20672;-87
2020/12/30 12:37:15;;;;;;;5.40;2.00;;;6.20;62.10;;;;;;5008440;28;20267;-87
2020/12/30 12:39:43;;;;;;;6.10;2.40;;;6.20;62.30;;;;;;4999734;28;20298;-87
2020/12/30 12:42:10;;;;;;;5.47;1.90;;;6.10;62.60;;;;;;5003523;28;20596;-87
2020/12/30 12:44:38;;;;;;;8.70;2.40;;;6.10;62.40;;;;;;4988237;28;20287;-89
2020/12/30 12:47:05;;;;;;;4.50;1.83;;;6.00;63.60;;;;;;4983989;28;20227;-88
2020/12/30 12:49:31;;;;;;;5.83;2.17;;;5.90;64.40;;;;;;4996923;28;20671;-86
2020/12/30 12:51:59;;;;;;;3.93;2.20;;;6.00;65.00;;;;;;5007991;28;20242;-88
2020/12/30 12:54:25;;;;;;;7.30;2.30;;;6.20;69.50;;;;;;4987782;28;20551;-87
2020/12/30 12:56:56;;;;;;;5.37;2.20;;;6.30;68.00;;;;;;5001538;28;20227;-87
2020/12/30 12:59:22;;;;;;;4.87;2.20;;;6.20;63.80;;;;;;4992681;28;20227;-87
2020/12/30 13:01:49;;;;;;;7.23;2.30;;;6.40;65.10;;;;;;4998171;28;20238;-87
2020/12/30 13:04:15;;;;;;;4.53;2.40;;;6.40;63.60;;;;;;5001624;28;20226;-88